Flight Track Log - Related Links

Times and Time Zones

All times are in EST time to prevent confusion due to time zone crossing. See the FLG3757 flight status page for this flight to view local times or setup timezone preferences in your user account.

Time Position Orientation Groundspeed Altitude Reporting Facility
EST Latitude Longitude Course Direction KTS MPH feet Rate Location/Type
Sat 10:54:17 AM 42.1542 -75.9933 288° West 156 180 5,800  Level New York Center
Sat 10:55:17 AM 42.1753 -76.0789 288° West 194 223 7,800 2,100 Climbing New York Center
Sat 10:56:17 AM 42.2025 -76.1708 292° West 228 262 10,000 1,100 Climbing New York Center
Sat 10:57:17 AM 42.2367 -76.2856 292° West 282 325 10,000 1,130 Level New York Center
Sat 10:58:51 AM 42.2925 -76.4606 293° West 354 407 12,900 1,935 Climbing Cleveland Center
Sat 10:59:52 AM 42.3289 -76.5800 292° West 346 398 15,000 1,770 Climbing Cleveland Center
Sat 11:00:53 AM 42.3664 -76.7017 293° West 348 400 16,500 1,756 Climbing Cleveland Center
Sat 11:01:55 AM 42.4089 -76.8497 291° West 353 406 18,600 1,756 Climbing Cleveland Center
Sat 11:02:56 AM 42.4456 -76.9706 292° West 350 403 20,100 1,426 Climbing Cleveland Center
Sat 11:03:57 AM 42.4817 -77.0917 292° West 348 400 21,500 1,180 Climbing Cleveland Center
Sat 11:04:58 AM 42.5178 -77.2133 292° West 348 400 22,500 976 Climbing Cleveland Center
Sat 11:06:00 AM 42.5542 -77.3364 292° West 351 404 23,500 976 Climbing Cleveland Center
Sat 11:07:01 AM 42.5900 -77.4608 291° West 354 407 24,500 1,033 Climbing Cleveland Center
Sat 11:08:02 AM 42.6311 -77.6014 292° West 358 412 25,600 1,024 Climbing Cleveland Center
Sat 11:09:04 AM 42.6694 -77.7261 293° West 361 415 26,600 976 Climbing Cleveland Center
Sat 11:10:05 AM 42.7047 -77.8503 291° West 358 412 27,600 689 Climbing Cleveland Center
Sat 11:11:06 AM 42.7397 -77.9764 291° West 358 412 28,000 197 Climbing Cleveland Center
Sat 11:12:07 AM 42.7767 -78.1092 291° West 376 433 28,000  Level Cleveland Center
Sat 11:13:09 AM 42.8164 -78.2489 291° West 395 455 28,000  Level Cleveland Center
Sat 11:14:10 AM 42.8567 -78.3900 291° West 400 460 28,000  Level Cleveland Center
Sat 11:15:11 AM 42.8969 -78.5319 291° West 402 463 28,000  Level Cleveland Center
Sat 11:16:13 AM 42.9300 -78.6731 288° West 391 450 28,000  Level Cleveland Center
Sat 11:17:13 AM 42.9033 -78.8311 257° West 357 411 28,000  Level Cleveland Center
Sat 11:18:15 AM 42.8828 -78.9644 258° West 358 412 28,000  Level Cleveland Center
Sat 11:19:16 AM 42.8631 -79.0989 259° West 363 418 28,000  Level Cleveland Center
Sat 11:20:17 AM 42.8439 -79.2311 259° West 357 411 28,000  Level Cleveland Center
Sat 11:21:18 AM 42.8233 -79.3664 258° West 364 419 28,000  Level Cleveland Center
Sat 11:22:19 AM 42.8036 -79.5003 259° West 361 415 28,000  Level Cleveland Center
Sat 11:23:20 AM 42.7833 -79.6342 258° West 362 417 28,000  Level Cleveland Center
Sat 11:24:22 AM 42.7628 -79.7678 258° West 362 417 28,000  Level Cleveland Center
Sat 11:25:23 AM 42.7478 -79.9042 262° West 366 421 28,000  Level Cleveland Center
Sat 11:26:24 AM 42.7422 -80.0672 267° West 379 436 28,000  Level Cleveland Center
Sat 11:27:25 AM 42.7353 -80.2067 266° West 371 427 28,000  Level Cleveland Center
Sat 11:28:26 AM 42.7294 -80.3467 267° West 370 426 28,000  Level Cleveland Center
Sat 11:29:28 AM 42.7228 -80.4867 266° West 369 425 28,000 -146 Level Cleveland Center
Sat 11:30:29 AM 42.7172 -80.6242 267° West 365 420 27,700 -639 Descending Cleveland Center
Sat 11:31:30 AM 42.7131 -80.7564 268° West 355 409 26,700 -1,033 Descending Cleveland Center
Sat 11:32:31 AM 42.7067 -80.8794 266° West 333 383 25,600 -984 Descending Cleveland Center
Sat 11:33:32 AM 42.6931 -80.9975 261° West 317 365 24,700 -780 Descending Cleveland Center
Sat 11:34:34 AM 42.6819 -81.1106 262° West 303 349 24,000 -488 Descending Cleveland Center
Sat 11:35:35 AM 42.6692 -81.2175 261° West 289 333 23,700 -689 Descending Cleveland Center
Sat 11:36:36 AM 42.6564 -81.3186 260° West 274 315 22,600 -1,033 Descending Cleveland Center
Sat 11:37:37 AM 42.6447 -81.4167 261° West 264 304 21,600 -1,082 Descending Cleveland Center
Sat 11:38:38 AM 42.6311 -81.5311 261° West 262 302 20,400 -1,073 Descending Cleveland Center
Sat 11:39:40 AM 42.6189 -81.6347 261° West 273 314 19,400 -1,220 Descending Cleveland Center
Sat 11:40:41 AM 42.6069 -81.7400 261° West 279 321 17,900 -1,180 Descending Cleveland Center
Sat 11:41:42 AM 42.5953 -81.8356 261° West 275 316 17,000 -984 Descending Cleveland Center
Sat 11:42:43 AM 42.5828 -81.9369 261° West 273 314 15,900 -984 Descending Cleveland Center
Sat 11:43:44 AM 42.5697 -82.0431 261° West 283 326 15,000 -927 Descending Cleveland Center
Sat 11:44:46 AM 42.5572 -82.1514 261° West 292 336 14,000 -976 Descending Cleveland Center
Sat 11:45:47 AM 42.5433 -82.2572 260° West 288 331 13,000 -1,219 Descending Cleveland Center
Sat 11:45:50 AM 42.5406 -82.2847 262° West 289 333 12,700 -1,556 Descending Cleveland Center
Sat 11:46:14 AM 42.5358 -82.3267 261° West 290 334 12,300 -724 Descending Cleveland Center
Sat 11:46:48 AM 42.5275 -82.3875 259° West 291 335 12,000 -295 Descending Cleveland Center
Sat 11:47:15 AM 42.5217 -82.4381 261° West 287 330 12,000  Level Cleveland Center
Sat 11:47:49 AM 42.5142 -82.4914 259° West 285 328 12,000  Level Cleveland Center
Sat 11:48:16 AM 42.5083 -82.5408 261° West 278 320 12,000  Level Cleveland Center
Sat 11:48:50 AM 42.4922 -82.5889 246° West 278 320 12,000 -393 Level Cleveland Center
Sat 11:49:17 AM 42.4767 -82.6331 244° Southwest 269 310 11,600 -1,180 Descending Cleveland Center
Sat 11:49:51 AM 42.4611 -82.6769 244° Southwest 265 305 10,800 -1,600 Descending Cleveland Center
Sat 11:50:17 AM 42.4475 -82.7169 245° Southwest 246 283 10,000 -1,548 Descending Cleveland Center
Sat 11:50:53 AM 42.4392 -82.7633 256° West 258 297 9,200 -1,574 Descending Cleveland Center
Sat 11:51:18 AM 42.4408 -82.8092 273° West 242 278 8,400 -1,770 Descending Cleveland Center
Sat 11:51:54 AM 42.4408 -82.8528 270° West 244 281 7,400 -2,032 Descending Cleveland Center
Sat 11:52:20 AM 42.4406 -82.8997 270° West 236 272 6,300 -1,377 Descending Cleveland Center
Sat 11:52:55 AM 42.4386 -82.9411 266° West 238 274 6,000 -300 Descending Cleveland Center
Sat 11:53:20 AM 42.4358 -82.9894 266° West 234 269 6,000  Level Cleveland Center
Sat 11:53:56 AM 42.4347 -83.0278 268° West 234 269 6,000 -500 Level Cleveland Center
Sat 11:54:20 AM 42.4256 -83.0731 255° West 225 259 5,500 -984 Descending Cleveland Center
Sat 11:54:57 AM 42.4192 -83.1094 257° West 228 262 5,000 -1,075 Descending Cleveland Center
Sat 11:55:27 AM 42.4081 -83.1667 255° West 227 261 4,300 -885 Descending Cleveland Center
Sat 11:55:58 AM 42.3989 -83.1872 239° Southwest 226 260 4,100 -492 Descending Cleveland Center
Sat 11:56:28 AM 42.3681 -83.2233 221° Southwest 200 230 3,800 -492 Descending Cleveland Center
Sat 11:56:59 AM 42.3533 -83.2350 210° Southwest 213 245 3,600 -700 Descending Cleveland Center
Sat 11:57:28 AM 42.3214 -83.2592 209° Southwest 178 205 3,100 -984 Descending Cleveland Center
Sat 11:58:00 AM 42.3003 -83.2756 210° Southwest 192 221 2,600 -873 Descending Cleveland Center
Sat 11:58:23 AM 42.2858 -83.2853 206° Southwest 149 171 2,300 -787 Descending Cleveland Center
Sat 11:59:01 AM 42.2672 -83.2989 208° Southwest 157 181 1,800 -689 Descending Cleveland Center
Sat 11:59:24 AM 42.2544 -83.3092 211° Southwest 122 140 1,600 -581 Descending Cleveland Center
Sat 12:00:03 PM 42.2381 -83.3214 209° Southwest 133 153 1,200 -667 Descending Cleveland Center
Sat 12:00:18 PM 42.2281 -83.3278 205° Southwest 124 143 1,000 -197 Descending Cleveland Center
Sat 12:01:04 PM 42.2083 -83.3436 211° Southwest 130 150 1,000  Level Cleveland Center
Sat 12:03:00 PM 42.2000 -83.3500 217° Southwest  Level FlightAware Approximate

Login

Don't have an account? Register now (free) for customized features, flight alerts, and more!